Private Wetterstation Wechselburg
Wetterdaten: Montag, 21.11.2011
Datum Zeit Temp. +2m Bodentemp. Temp.+5cm Temp. Wind Windchill X Diff Temp. Feuchte +2m Feuchte +5cm Sonnenschein Luftdruck Regen Wind Richtung Richtung Sonnenschein UV Taupunkt Windchill Windben
21.11.2011 00:00 3,6 C 10,8 C 3,5 C 3,4 C 3,0 C 0,0 C 87 % 89 % 0 % 1023,7 hPa 0,0 l/m 0,0 km/h (0 Bft) O-NO 67 0 min 0,0 UV-I 1,6 C 3,0 C 0,0 km/h (0 Bft)
21.11.2011 00:04 3,5 C 10,8 C 3,5 C 3,3 C 2,9 C 0,0 C 87 % 89 % 0 % 1023,7 hPa 0,0 l/m 0,0 km/h (0 Bft) O-NO 67 0 min 0,0 UV-I 1,5 C 2,9 C 0,0 km/h (0 Bft)
21.11.2011 00:09 3,3 C 10,8 C 3,4 C 3,1 C 2,8 C 0,0 C 87 % 89 % 0 % 1023,7 hPa 0,0 l/m 0,0 km/h (0 Bft) O-NO 67 0 min 0,0 UV-I 1,3 C 2,8 C 0,0 km/h (0 Bft)
21.11.2011 00:14 3,2 C 10,8 C 3,3 C 3,0 C 2,7 C 0,0 C 87 % 89 % 0 % 1023,7 hPa 0,0 l/m 0,0 km/h (0 Bft) O-NO 67 0 min 0,0 UV-I 1,2 C 2,7 C 0,0 km/h (0 Bft)
21.11.2011 00:19 3,2 C 10,8 C 3,3 C 3,0 C 2,7 C 0,0 C 87 % 89 % 0 % 1023,7 hPa 0,0 l/m 0,0 km/h (0 Bft) N 360 0 min 0,0 UV-I 1,2 C 2,7 C 0,0 km/h (0 Bft)
21.11.2011 00:25 3,1 C 10,8 C 3,3 C 3,1 C 3,0 C 0,0 C 87 % 89 % 0 % 1023,7 hPa 0,0 l/m 0,0 km/h (0 Bft) N 360 0 min 0,0 UV-I 1,2 C 3,0 C 0,0 km/h (0 Bft)
21.11.2011 00:30 3,1 C 10,8 C 3,5 C 3,1 C 3,0 C 0,0 C 88 % 90 % 0 % 1023,7 hPa 0,0 l/m 0,0 km/h (0 Bft) N 360 0 min 0,0 UV-I 1,3 C 3,0 C 0,0 km/h (0 Bft)
21.11.2011 00:35 3,1 C 10,8 C 3,5 C 3,2 C 3,2 C 0,1 C 88 % 90 % 0 % 1023,7 hPa 0,0 l/m 0,0 km/h (0 Bft) N-NO 22 0 min 0,0 UV-I 1,3 C 3,2 C 0,0 km/h (0 Bft)
21.11.2011 00:40 3,1 C 10,8 C 3,5 C 3,4 C 3,4 C 0,3 C 88 % 90 % 0 % 1023,2 hPa 0,0 l/m 0,0 km/h (0 Bft) N 360 0 min 0,0 UV-I 1,3 C 3,4 C 0,0 km/h (0 Bft)
21.11.2011 00:45 3,1 C 10,8 C 3,6 C 3,5 C 3,5 C 0,4 C 89 % 90 % 0 % 1023,2 hPa 0,0 l/m 0,0 km/h (0 Bft) N 360 0 min 0,0 UV-I 1,5 C 3,5 C 0,0 km/h (0 Bft)
21.11.2011 00:50 3,2 C 10,8 C 3,6 C 3,6 C 3,6 C 0,4 C 89 % 90 % 0 % 1023,2 hPa 0,0 l/m 0,0 km/h (0 Bft) N 360 0 min 0,0 UV-I 1,6 C 3,6 C 0,0 km/h (0 Bft)
21.11.2011 00:55 3,3 C 10,8 C 3,6 C 3,7 C 3,7 C 0,4 C 89 % 90 % 0 % 1023,2 hPa 0,0 l/m 0,0 km/h (0 Bft) N-NO 22 0 min 0,0 UV-I 1,7 C 3,7 C 0,0 km/h (0 Bft)
21.11.2011 01:00 3,3 C 10,7 C 3,6 C 3,6 C 3,6 C 0,3 C 89 % 90 % 0 % 1023,0 hPa 0,0 l/m 0,0 km/h (0 Bft) N-NO 22 0 min 0,0 UV-I 1,7 C 3,6 C 0,0 km/h (0 Bft)
21.11.2011 01:08 3,2 C 10,8 C 3,6 C 3,6 C 3,6 C 0,4 C 89 % 90 % 0 % 1023,0 hPa 0,0 l/m 0,0 km/h (0 Bft) - - 0 0 min 0,0 UV-I 1,6 C 3,6 C 0,0 km/h (0 Bft)
21.11.2011 01:20 3,2 C 10,8 C 3,6 C 3,6 C 3,6 C 0,4 C 89 % 90 % 0 % 1022,5 hPa 0,0 l/m 0,0 km/h (0 Bft) N 360 0 min 0,0 UV-I 1,6 C 3,6 C 0,0 km/h (0 Bft)
21.11.2011 01:25 3,2 C 10,8 C 3,6 C 3,5 C 3,5 C 0,3 C 89 % 90 % 0 % 1022,5 hPa 0,0 l/m 0,0 km/h (0 Bft) N-NO 22 0 min 0,0 UV-I 1,6 C 3,5 C 0,0 km/h (0 Bft)
21.11.2011 01:30 3,2 C 10,8 C 3,6 C 3,5 C 3,5 C 0,3 C 89 % 90 % 0 % 1022,5 hPa 0,0 l/m 0,0 km/h (0 Bft) N-NO 22 0 min 0,0 UV-I 1,6 C 3,5 C 0,0 km/h (0 Bft)
21.11.2011 01:35 3,2 C 10,8 C 3,7 C 3,4 C 3,4 C 0,2 C 89 % 90 % 0 % 1022,5 hPa 0,0 l/m 0,0 km/h (0 Bft) N-NO 22 0 min 0,0 UV-I 1,6 C 3,4 C 0,0 km/h (0 Bft)
21.11.2011 01:40 3,2 C 10,8 C 3,6 C 3,3 C 3,3 C 0,1 C 89 % 90 % 0 % 1022,3 hPa 0,0 l/m 0,0 km/h (0 Bft) N 360 0 min 0,0 UV-I 1,6 C 3,3 C 0,0 km/h (0 Bft)
21.11.2011 01:45 3,3 C 10,8 C 3,5 C 3,3 C 3,2 C 0,0 C 89 % 90 % 0 % 1022,3 hPa 0,0 l/m 0,0 km/h (0 Bft) N 360 0 min 0,0 UV-I 1,7 C 3,2 C 0,0 km/h (0 Bft)
21.11.2011 01:50 3,3 C 10,8 C 3,5 C 3,3 C 3,2 C 0,0 C 89 % 90 % 0 % 1022,3 hPa 0,0 l/m 0,0 km/h (0 Bft) N 360 0 min 0,0 UV-I 1,7 C 3,2 C 0,0 km/h (0 Bft)
21.11.2011 01:55 3,3 C 10,8 C 3,5 C 3,3 C 3,2 C 0,0 C 89 % 90 % 0 % 1022,3 hPa 0,0 l/m 0,0 km/h (0 Bft) NO 45 0 min 0,0 UV-I 1,7 C 3,2 C 0,0 km/h (0 Bft)
21.11.2011 02:00 3,3 C 10,8 C 3,5 C 3,3 C 3,3 C 0,0 C 89 % 90 % 0 % 1022,3 hPa 0,0 l/m 0,0 km/h (0 Bft) N 360 0 min 0,0 UV-I 1,7 C 3,3 C 0,0 km/h (0 Bft)
21.11.2011 02:10 3,2 C 10,8 C 3,6 C 3,4 C 3,4 C 0,2 C 89 % 90 % 0 % 1022,3 hPa 0,0 l/m 0,0 km/h (0 Bft) - - 0 0 min 0,0 UV-I 1,6 C 3,4 C 0,0 km/h (0 Bft)
21.11.2011 02:15 3,2 C 10,8 C 3,6 C 3,4 C 3,4 C 0,2 C 89 % 90 % 0 % 1022,3 hPa 0,0 l/m 0,0 km/h (0 Bft) W 270 0 min 0,0 UV-I 1,6 C 3,4 C 0,0 km/h (0 Bft)
21.11.2011 02:20 3,3 C 10,8 C 3,6 C 3,5 C 3,5 C 0,2 C 89 % 91 % 0 % 1022,6 hPa 0,0 l/m 0,0 km/h (0 Bft) W 270 0 min 0,0 UV-I 1,7 C 3,5 C 0,0 km/h (0 Bft)
21.11.2011 02:25 3,2 C 10,8 C 3,6 C 3,5 C 3,5 C 0,3 C 89 % 91 % 0 % 1022,6 hPa 0,0 l/m 0,0 km/h (0 Bft) N-NW 337 0 min 0,0 UV-I 1,6 C 3,5 C 0,0 km/h (0 Bft)
21.11.2011 02:30 3,2 C 10,8 C 3,6 C 3,6 C 3,6 C 0,4 C 89 % 91 % 0 % 1022,6 hPa 0,0 l/m 0,0 km/h (0 Bft) N-NW 337 0 min 0,0 UV-I 1,6 C 3,6 C 0,0 km/h (0 Bft)
21.11.2011 02:35 3,3 C 10,8 C 3,6 C 3,7 C 3,7 C 0,4 C 89 % 91 % 0 % 1022,6 hPa 0,0 l/m 0,0 km/h (0 Bft) N-NW 337 0 min 0,0 UV-I 1,7 C 3,7 C 0,0 km/h (0 Bft)
21.11.2011 02:40 3,3 C 10,8 C 3,6 C 3,7 C 3,7 C 0,4 C 89 % 91 % 0 % 1022,0 hPa 0,0 l/m 0,0 km/h (0 Bft) NW 315 0 min 0,0 UV-I 1,7 C 3,7 C 0,0 km/h (0 Bft)
21.11.2011 02:45 3,3 C 10,8 C 3,7 C 3,7 C 3,7 C 0,4 C 89 % 91 % 0 % 1022,0 hPa 0,0 l/m 0,0 km/h (0 Bft) N-NW 337 0 min 0,0 UV-I 1,7 C 3,7 C 0,0 km/h (0 Bft)
21.11.2011 02:50 3,3 C 10,8 C 3,7 C 3,7 C 3,7 C 0,4 C 89 % 91 % 0 % 1022,0 hPa 0,0 l/m 0,0 km/h (0 Bft) NW 315 0 min 0,0 UV-I 1,7 C 3,7 C 0,0 km/h (0 Bft)
21.11.2011 02:55 3,4 C 10,8 C 3,7 C 3,8 C 3,8 C 0,4 C 90 % 91 % 0 % 1022,0 hPa 0,0 l/m 0,0 km/h (0 Bft) N-NW 337 0 min 0,0 UV-I 1,9 C 3,8 C 0,0 km/h (0 Bft)
21.11.2011 03:00 3,5 C 10,8 C 3,7 C 3,8 C 3,8 C 0,3 C 90 % 91 % 0 % 1022,7 hPa 0,0 l/m 0,0 km/h (0 Bft) N-NW 337 0 min 0,0 UV-I 2,0 C 3,8 C 0,0 km/h (0 Bft)
21.11.2011 03:10 3,4 C 10,7 C 3,9 C 3,9 C 3,9 C 0,5 C 90 % 91 % 0 % 1022,7 hPa 0,0 l/m 0,0 km/h (0 Bft) - - 0 0 min 0,0 UV-I 1,9 C 3,9 C 0,0 km/h (0 Bft)
21.11.2011 03:20 3,6 C 10,8 C 3,9 C 4,0 C 4,0 C 0,4 C 90 % 91 % 0 % 1022,1 hPa 0,0 l/m 0,0 km/h (0 Bft) N-NW 337 0 min 0,0 UV-I 2,1 C 4,0 C 0,0 km/h (0 Bft)
21.11.2011 03:25 3,6 C 10,8 C 3,9 C 3,9 C 3,9 C 0,3 C 90 % 91 % 0 % 1022,1 hPa 0,0 l/m 0,0 km/h (0 Bft) W-NW 292 0 min 0,0 UV-I 2,1 C 3,9 C 0,0 km/h (0 Bft)
21.11.2011 03:30 3,5 C 10,8 C 3,8 C 3,8 C 3,8 C 0,3 C 90 % 91 % 0 % 1022,1 hPa 0,0 l/m 0,0 km/h (0 Bft) W-NW 292 0 min 0,0 UV-I 2,0 C 3,8 C 0,0 km/h (0 Bft)
21.11.2011 03:35 3,5 C 10,8 C 3,7 C 3,7 C 3,7 C 0,2 C 90 % 91 % 0 % 1022,1 hPa 0,0 l/m 0,0 km/h (0 Bft) NW 315 0 min 0,0 UV-I 2,0 C 3,7 C 0,0 km/h (0 Bft)
21.11.2011 03:40 3,5 C 10,8 C 3,7 C 3,7 C 3,7 C 0,2 C 90 % 91 % 0 % 1022,4 hPa 0,0 l/m 0,0 km/h (0 Bft) NW 315 0 min 0,0 UV-I 2,0 C 3,7 C 0,0 km/h (0 Bft)
21.11.2011 03:45 3,5 C 10,8 C 3,7 C 3,6 C 3,6 C 0,1 C 90 % 91 % 0 % 1022,4 hPa 0,0 l/m 0,0 km/h (0 Bft) N-NW 337 0 min 0,0 UV-I 2,0 C 3,6 C 0,0 km/h (0 Bft)
21.11.2011 03:50 3,5 C 10,8 C 3,7 C 3,6 C 3,6 C 0,1 C 90 % 91 % 0 % 1022,4 hPa 0,0 l/m 0,0 km/h (0 Bft) N-NW 337 0 min 0,0 UV-I 2,0 C 3,6 C 0,0 km/h (0 Bft)
21.11.2011 03:55 3,5 C 10,8 C 3,7 C 3,7 C 3,7 C 0,2 C 90 % 91 % 0 % 1022,4 hPa 0,0 l/m 0,0 km/h (0 Bft) N-NW 337 0 min 0,0 UV-I 2,0 C 3,7 C 0,0 km/h (0 Bft)
21.11.2011 04:00 3,5 C 10,8 C 3,7 C 3,7 C 3,7 C 0,2 C 90 % 91 % 0 % 1022,4 hPa 0,0 l/m 0,0 km/h (0 Bft) N-NW 337 0 min 0,0 UV-I 2,0 C 3,7 C 0,0 km/h (0 Bft)
21.11.2011 04:05 3,5 C 10,8 C 3,7 C 3,7 C 3,7 C 0,2 C 90 % 91 % 0 % 1022,4 hPa 0,0 l/m 0,0 km/h (0 Bft) N-NW 337 0 min 0,0 UV-I 2,0 C 3,7 C 0,0 km/h (0 Bft)
21.11.2011 04:10 3,5 C 10,8 C 3,7 C 3,7 C 3,7 C 0,2 C 90 % 91 % 0 % 1022,4 hPa 0,0 l/m 0,0 km/h (0 Bft) N-NW 337 0 min 0,0 UV-I 2,0 C 3,7 C 0,0 km/h (0 Bft)
21.11.2011 04:15 3,4 C 10,8 C 3,7 C 3,6 C 3,6 C 0,2 C 90 % 91 % 0 % 1022,4 hPa 0,0 l/m 0,0 km/h (0 Bft) W-NW 292 0 min 0,0 UV-I 1,9 C 3,6 C 0,0 km/h (0 Bft)
21.11.2011 04:20 3,3 C 10,8 C 3,6 C 3,5 C 3,5 C 0,2 C 89 % 91 % 0 % 1022,2 hPa 0,0 l/m 0,0 km/h (0 Bft) W-NW 292 0 min 0,0 UV-I 1,7 C 3,5 C 0,0 km/h (0 Bft)
21.11.2011 04:25 3,3 C 10,8 C 3,6 C 3,4 C 3,4 C 0,1 C 89 % 91 % 0 % 1022,2 hPa 0,0 l/m 0,0 km/h (0 Bft) W-NW 292 0 min 0,0 UV-I 1,7 C 3,4 C 0,0 km/h (0 Bft)
21.11.2011 04:30 3,3 C 10,8 C 3,6 C 3,4 C 3,4 C 0,1 C 89 % 91 % 0 % 1022,2 hPa 0,0 l/m 0,0 km/h (0 Bft) W-NW 292 0 min 0,0 UV-I 1,7 C 3,4 C 0,0 km/h (0 Bft)
21.11.2011 04:35 3,3 C 10,8 C 3,6 C 3,3 C 3,3 C 0,0 C 89 % 91 % 0 % 1022,2 hPa 0,0 l/m 0,0 km/h (0 Bft) W-NW 292 0 min 0,0 UV-I 1,7 C 3,3 C 0,0 km/h (0 Bft)
21.11.2011 04:40 3,2 C 10,8 C 3,7 C 3,3 C 3,3 C 0,1 C 89 % 91 % 0 % 1021,7 hPa 0,0 l/m 0,0 km/h (0 Bft) W-NW 292 0 min 0,0 UV-I 1,6 C 3,3 C 0,0 km/h (0 Bft)
21.11.2011 04:45 3,2 C 10,8 C 3,6 C 3,3 C 3,3 C 0,1 C 89 % 91 % 0 % 1021,7 hPa 0,0 l/m 0,0 km/h (0 Bft) W-NW 292 0 min 0,0 UV-I 1,6 C 3,3 C 0,0 km/h (0 Bft)
21.11.2011 04:50 3,2 C 10,8 C 3,6 C 3,2 C 3,2 C 0,0 C 89 % 91 % 0 % 1021,7 hPa 0,0 l/m 0,0 km/h (0 Bft) W-NW 292 0 min 0,0 UV-I 1,6 C 3,2 C 0,0 km/h (0 Bft)
21.11.2011 04:55 3,3 C 10,8 C 3,5 C 3,2 C 3,1 C 0,0 C 89 % 91 % 0 % 1021,7 hPa 0,0 l/m 0,0 km/h (0 Bft) W-NW 292 0 min 0,0 UV-I 1,7 C 3,1 C 0,0 km/h (0 Bft)
21.11.2011 05:00 3,2 C 10,8 C 3,5 C 3,2 C 3,1 C 0,0 C 90 % 91 % 0 % 1021,7 hPa 0,0 l/m 0,0 km/h (0 Bft) W-NW 292 0 min 0,0 UV-I 1,7 C 3,1 C 0,0 km/h (0 Bft)
21.11.2011 05:04 3,2 C 10,8 C 3,5 C 3,2 C 3,1 C 0,0 C 90 % 91 % 0 % 1021,7 hPa 0,0 l/m 0,0 km/h (0 Bft) W-NW 292 0 min 0,0 UV-I 1,7 C 3,1 C 0,0 km/h (0 Bft)
21.11.2011 05:09 3,2 C 10,8 C 3,5 C 3,2 C 3,1 C 0,0 C 90 % 91 % 0 % 1021,7 hPa 0,0 l/m 0,0 km/h (0 Bft) W-NW 292 0 min 0,0 UV-I 1,7 C 3,1 C 0,0 km/h (0 Bft)
21.11.2011 05:14 3,1 C 10,8 C 3,4 C 3,1 C 3,0 C 0,0 C 90 % 91 % 0 % 1021,7 hPa 0,0 l/m 0,0 km/h (0 Bft) W-NW 292 0 min 0,0 UV-I 1,6 C 3,0 C 0,0 km/h (0 Bft)
21.11.2011 05:18 3,1 C 10,8 C 3,4 C 3,1 C 3,0 C 0,0 C 90 % 91 % 0 % 1021,7 hPa 0,0 l/m 0,0 km/h (0 Bft) W-NW 292 0 min 0,0 UV-I 1,6 C 3,0 C 0,0 km/h (0 Bft)
21.11.2011 05:25 3,1 C 10,9 C 3,4 C 3,0 C 2,9 C 0,0 C 90 % 91 % 0 % 1021,7 hPa 0,0 l/m 0,0 km/h (0 Bft) W-NW 292 0 min 0,0 UV-I 1,6 C 2,9 C 0,0 km/h (0 Bft)
21.11.2011 05:30 3,1 C 10,9 C 3,5 C 3,0 C 2,8 C 0,0 C 90 % 91 % 0 % 1021,7 hPa 0,0 l/m 0,0 km/h (0 Bft) W-NW 292 0 min 0,0 UV-I 1,6 C 2,8 C 0,0 km/h (0 Bft)
21.11.2011 05:35 2,9 C 10,9 C 3,3 C 2,9 C 2,8 C 0,0 C 90 % 91 % 0 % 1021,7 hPa 0,0 l/m 0,0 km/h (0 Bft) N 360 0 min 0,0 UV-I 1,4 C 2,8 C 0,0 km/h (0 Bft)
21.11.2011 05:40 2,9 C 10,9 C 3,3 C 2,8 C 2,7 C 0,0 C 90 % 91 % 0 % 1022,2 hPa 0,0 l/m 0,0 km/h (0 Bft) N 360 0 min 0,0 UV-I 1,4 C 2,7 C 0,0 km/h (0 Bft)
21.11.2011 05:45 2,8 C 10,9 C 3,2 C 2,7 C 2,6 C 0,0 C 90 % 91 % 0 % 1022,2 hPa 0,0 l/m 0,0 km/h (0 Bft) N 360 0 min 0,0 UV-I 1,3 C 2,6 C 0,0 km/h (0 Bft)
21.11.2011 05:50 2,8 C 10,9 C 3,3 C 2,7 C 2,6 C 0,0 C 90 % 91 % 0 % 1022,2 hPa 0,0 l/m 0,0 km/h (0 Bft) N 360 0 min 0,0 UV-I 1,3 C 2,6 C 0,0 km/h (0 Bft)
21.11.2011 05:55 2,9 C 10,9 C 3,2 C 2,8 C 2,5 C 0,0 C 90 % 91 % 0 % 1022,2 hPa 0,0 l/m 0,0 km/h (0 Bft) N 360 0 min 0,0 UV-I 1,4 C 2,5 C 0,0 km/h (0 Bft)
21.11.2011 06:00 2,8 C 10,9 C 3,1 C 2,7 C 2,5 C 0,0 C 90 % 91 % 0 % 1022,0 hPa 0,0 l/m 0,0 km/h (0 Bft) N 360 0 min 0,0 UV-I 1,3 C 2,5 C 0,0 km/h (0 Bft)
21.11.2011 06:04 2,8 C 10,9 C 3,1 C 2,7 C 2,5 C 0,0 C 90 % 91 % 0 % 1022,0 hPa 0,0 l/m 0,0 km/h (0 Bft) N 360 0 min 0,0 UV-I 1,3 C 2,5 C 0,0 km/h (0 Bft)
21.11.2011 06:09 2,8 C 10,9 C 3,1 C 2,7 C 2,5 C 0,0 C 90 % 91 % 0 % 1022,0 hPa 0,0 l/m 0,0 km/h (0 Bft) N 360 0 min 0,0 UV-I 1,3 C 2,5 C 0,0 km/h (0 Bft)
21.11.2011 06:14 2,7 C 10,9 C 3,1 C 2,6 C 2,5 C 0,0 C 90 % 91 % 0 % 1022,0 hPa 0,0 l/m 0,0 km/h (0 Bft) N 360 0 min 0,0 UV-I 1,2 C 2,5 C 0,0 km/h (0 Bft)
21.11.2011 06:18 2,7 C 10,9 C 3,1 C 2,6 C 2,5 C 0,0 C 90 % 91 % 0 % 1022,0 hPa 0,0 l/m 0,0 km/h (0 Bft) N 360 0 min 0,0 UV-I 1,2 C 2,5 C 0,0 km/h (0 Bft)
21.11.2011 06:20 2,7 C 10,9 C 3,1 C 2,7 C 2,6 C 0,0 C 90 % 91 % 0 % 1022,7 hPa 0,0 l/m 0,0 km/h (0 Bft) N 360 0 min 0,0 UV-I 1,2 C 2,6 C 0,0 km/h (0 Bft)
21.11.2011 06:25 2,7 C 10,9 C 3,1 C 2,7 C 2,7 C 0,0 C 90 % 91 % 0 % 1022,7 hPa 0,0 l/m 0,0 km/h (0 Bft) N 360 0 min 0,0 UV-I 1,2 C 2,7 C 0,0 km/h (0 Bft)
21.11.2011 06:30 2,8 C 10,9 C 3,1 C 2,8 C 2,8 C 0,0 C 91 % 91 % 0 % 1022,7 hPa 0,0 l/m 0,0 km/h (0 Bft) N 360 0 min 0,0 UV-I 1,5 C 2,8 C 0,0 km/h (0 Bft)
21.11.2011 06:35 2,8 C 10,9 C 3,1 C 2,9 C 2,9 C 0,1 C 91 % 91 % 0 % 1022,7 hPa 0,0 l/m 0,0 km/h (0 Bft) W 270 0 min 0,0 UV-I 1,5 C 2,9 C 0,0 km/h (0 Bft)
21.11.2011 06:40 2,7 C 10,9 C 3,2 C 3,0 C 3,0 C 0,3 C 91 % 91 % 0 % 1021,9 hPa 0,0 l/m 0,0 km/h (0 Bft) W 270 0 min 0,0 UV-I 1,4 C 3,0 C 0,0 km/h (0 Bft)
21.11.2011 06:45 2,7 C 10,9 C 3,1 C 3,0 C 3,0 C 0,3 C 91 % 91 % 0 % 1021,9 hPa 0,0 l/m 0,0 km/h (0 Bft) W 270 0 min 0,0 UV-I 1,4 C 3,0 C 0,0 km/h (0 Bft)
21.11.2011 06:50 2,7 C 10,9 C 3,1 C 2,9 C 2,9 C 0,2 C 91 % 91 % 0 % 1021,9 hPa 0,0 l/m 0,0 km/h (0 Bft) NW 315 0 min 0,0 UV-I 1,4 C 2,9 C 0,0 km/h (0 Bft)
21.11.2011 06:55 2,7 C 10,9 C 3,1 C 2,8 C 2,8 C 0,1 C 91 % 91 % 0 % 1021,9 hPa 0,0 l/m 0,0 km/h (0 Bft) N-NW 337 0 min 0,0 UV-I 1,4 C 2,8 C 0,0 km/h (0 Bft)
21.11.2011 07:00 2,6 C 10,9 C 3,1 C 2,8 C 2,8 C 0,2 C 91 % 91 % 0 % 1021,9 hPa 0,0 l/m 0,0 km/h (0 Bft) N-NW 337 0 min 0,0 UV-I 1,3 C 2,8 C 0,0 km/h (0 Bft)
21.11.2011 07:15 2,6 C 10,9 C 3,1 C 2,8 C 2,8 C 0,2 C 91 % 91 % 0 % 1021,9 hPa 0,0 l/m 0,0 km/h (0 Bft) N-NW 337 0 min 0,0 UV-I 1,3 C 2,8 C 0,0 km/h (0 Bft)
21.11.2011 07:18 2,6 C 10,9 C 3,1 C 2,8 C 2,8 C 0,2 C 91 % 91 % 0 % 1021,9 hPa 0,0 l/m 0,0 km/h (0 Bft) N-NW 337 0 min 0,0 UV-I 1,3 C 2,8 C 0,0 km/h (0 Bft)
21.11.2011 07:20 2,7 C 10,9 C 3,1 C 2,8 C 2,8 C 0,1 C 91 % 91 % 0 % 1021,5 hPa 0,0 l/m 0,0 km/h (0 Bft) N-NW 337 0 min 0,0 UV-I 1,4 C 2,8 C 0,0 km/h (0 Bft)
21.11.2011 07:25 2,6 C 10,9 C 3,1 C 2,7 C 2,7 C 0,1 C 91 % 91 % 0 % 1021,5 hPa 0,0 l/m 0,0 km/h (0 Bft) W 270 0 min 0,0 UV-I 1,3 C 2,7 C 0,0 km/h (0 Bft)
21.11.2011 07:30 2,7 C 10,9 C 3,1 C 2,7 C 2,7 C 0,0 C 91 % 91 % 0 % 1021,5 hPa 0,0 l/m 0,0 km/h (0 Bft) W 270 0 min 0,0 UV-I 1,4 C 2,7 C 0,0 km/h (0 Bft)
21.11.2011 07:35 2,7 C 10,9 C 3,1 C 2,7 C 2,7 C 0,0 C 91 % 91 % 0 % 1021,5 hPa 0,0 l/m 0,0 km/h (0 Bft) W 270 0 min 0,0 UV-I 1,4 C 2,7 C 0,0 km/h (0 Bft)
21.11.2011 07:40 2,7 C 10,9 C 3,1 C 2,7 C 2,7 C 0,0 C 91 % 91 % 0 % 1021,8 hPa 0,0 l/m 0,0 km/h (0 Bft) W 270 0 min 0,0 UV-I 1,4 C 2,7 C 0,0 km/h (0 Bft)
21.11.2011 07:45 2,7 C 10,9 C 3,1 C 2,7 C 2,6 C 0,0 C 91 % 91 % 0 % 1021,8 hPa 0,0 l/m 0,0 km/h (0 Bft) W 270 0 min 0,0 UV-I 1,4 C 2,6 C 0,0 km/h (0 Bft)
21.11.2011 07:50 2,7 C 10,9 C 3,1 C 2,7 C 2,6 C 0,0 C 91 % 91 % 0 % 1021,8 hPa 0,0 l/m 0,0 km/h (0 Bft) W 270 0 min 0,0 UV-I 1,4 C 2,6 C 0,0 km/h (0 Bft)
21.11.2011 07:55 2,7 C 10,8 C 3,1 C 2,7 C 2,7 C 0,0 C 91 % 91 % 0 % 1021,8 hPa 0,0 l/m 0,0 km/h (0 Bft) W 270 0 min 0,0 UV-I 1,4 C 2,7 C 0,0 km/h (0 Bft)
21.11.2011 08:00 2,7 C 10,9 C 3,2 C 2,7 C 2,7 C 0,0 C 91 % 91 % 0 % 1021,8 hPa 0,0 l/m 0,0 km/h (0 Bft) W 270 0 min 0,0 UV-I 1,4 C 2,7 C 0,0 km/h (0 Bft)
21.11.2011 08:04 2,7 C 10,9 C 3,2 C 2,8 C 2,8 C 0,1 C 91 % 91 % 3 % 1021,8 hPa 0,0 l/m 0,0 km/h (0 Bft) N-NO 22 0 min 0,0 UV-I 1,4 C 2,8 C 0,0 km/h (0 Bft)
21.11.2011 08:09 2,7 C 10,8 C 3,2 C 2,9 C 2,9 C 0,2 C 91 % 91 % 5 % 1021,8 hPa 0,0 l/m 0,0 km/h (0 Bft) N-NO 22 0 min 0,0 UV-I 1,4 C 2,9 C 0,0 km/h (0 Bft)
21.11.2011 08:14 2,7 C 10,9 C 3,3 C 3,0 C 3,0 C 0,3 C 91 % 92 % 8 % 1021,8 hPa 0,0 l/m 0,0 km/h (0 Bft) N-NO 22 0 min 0,0 UV-I 1,4 C 3,0 C 0,0 km/h (0 Bft)
21.11.2011 08:18 2,7 C 10,9 C 3,3 C 3,0 C 3,0 C 0,3 C 91 % 92 % 8 % 1021,8 hPa 0,0 l/m 0,0 km/h (0 Bft) N-NO 22 0 min 0,0 UV-I 1,4 C 3,0 C 0,0 km/h (0 Bft)
21.11.2011 08:25 2,9 C 10,9 C 3,3 C 3,3 C 3,3 C 0,4 C 91 % 92 % 11 % 1021,9 hPa 0,0 l/m 0,0 km/h (0 Bft) N-NO 22 0 min 0,0 UV-I 1,6 C 3,3 C 0,0 km/h (0 Bft)
21.11.2011 08:30 2,8 C 10,9 C 3,4 C 3,3 C 3,3 C 0,5 C 91 % 92 % 13 % 1021,9 hPa 0,0 l/m 0,0 km/h (0 Bft) N-NO 22 0 min 0,0 UV-I 1,5 C 3,3 C 0,0 km/h (0 Bft)
21.11.2011 08:35 2,9 C 10,8 C 3,5 C 3,5 C 3,5 C 0,6 C 91 % 92 % 16 % 1021,9 hPa 0,0 l/m 0,0 km/h (0 Bft) N 360 0 min 0,0 UV-I 1,6 C 3,5 C 0,0 km/h (0 Bft)
21.11.2011 08:40 2,9 C 10,8 C 3,5 C 3,7 C 3,7 C 0,8 C 91 % 92 % 21 % 1021,9 hPa 0,0 l/m 0,0 km/h (0 Bft) N 360 0 min 0,0 UV-I 1,6 C 3,7 C 0,0 km/h (0 Bft)
21.11.2011 08:45 3,0 C 10,8 C 3,6 C 3,7 C 3,7 C 0,7 C 91 % 92 % 18 % 1021,9 hPa 0,0 l/m 0,0 km/h (0 Bft) N 360 0 min 0,0 UV-I 1,7 C 3,7 C 0,0 km/h (0 Bft)
21.11.2011 08:50 3,1 C 10,8 C 3,7 C 3,9 C 3,9 C 0,8 C 91 % 92 % 21 % 1021,9 hPa 0,0 l/m 0,0 km/h (0 Bft) N 360 0 min 0,0 UV-I 1,8 C 3,9 C 0,0 km/h (0 Bft)
21.11.2011 08:55 3,1 C 10,8 C 3,9 C 4,2 C 4,2 C 1,1 C 91 % 92 % 29 % 1021,9 hPa 0,0 l/m 0,0 km/h (0 Bft) N 360 0 min 0,0 UV-I 1,8 C 4,2 C 0,0 km/h (0 Bft)
21.11.2011 09:00 3,2 C 10,8 C 3,9 C 4,3 C 4,3 C 1,1 C 91 % 92 % 29 % 1022,1 hPa 0,0 l/m 0,0 km/h (0 Bft) N 360 0 min 0,0 UV-I 1,9 C 4,3 C 0,0 km/h (0 Bft)
21.11.2011 09:04 3,3 C 10,7 C 4,0 C 4,6 C 4,6 C 1,3 C 92 % 92 % 34 % 1022,1 hPa 0,0 l/m 0,0 km/h (0 Bft) N 360 0 min 0,0 UV-I 2,1 C 4,6 C 0,0 km/h (0 Bft)
21.11.2011 09:09 3,5 C 10,6 C 4,0 C 4,8 C 4,8 C 1,3 C 92 % 92 % 34 % 1022,1 hPa 0,0 l/m 0,0 km/h (0 Bft) W 270 0 min 0,0 UV-I 2,3 C 4,8 C 0,0 km/h (0 Bft)
21.11.2011 09:14 3,5 C 10,6 C 4,1 C 5,0 C 5,0 C 1,5 C 92 % 92 % 39 % 1022,1 hPa 0,0 l/m 0,0 km/h (0 Bft) W 270 0 min 0,0 UV-I 2,3 C 5,0 C 0,0 km/h (0 Bft)
21.11.2011 09:18 3,5 C 10,6 C 4,1 C 5,0 C 5,0 C 1,5 C 92 % 92 % 39 % 1022,1 hPa 0,0 l/m 0,0 km/h (0 Bft) W 270 0 min 0,0 UV-I 2,3 C 5,0 C 0,0 km/h (0 Bft)
21.11.2011 09:25 3,7 C 10,6 C 4,3 C 5,2 C 5,2 C 1,5 C 92 % 92 % 39 % 1021,9 hPa 0,0 l/m 0,0 km/h (0 Bft) W 270 0 min 0,0 UV-I 2,5 C 5,2 C 0,0 km/h (0 Bft)
21.11.2011 09:30 3,9 C 10,6 C 4,3 C 5,3 C 5,3 C 1,4 C 92 % 92 % 37 % 1021,9 hPa 0,0 l/m 0,0 km/h (0 Bft) W 270 0 min 0,0 UV-I 2,7 C 5,3 C 0,0 km/h (0 Bft)
21.11.2011 09:35 3,9 C 10,6 C 4,4 C 5,3 C 5,3 C 1,4 C 92 % 92 % 37 % 1021,9 hPa 0,0 l/m 0,0 km/h (0 Bft) W 270 0 min 0,0 UV-I 2,7 C 5,3 C 0,0 km/h (0 Bft)
21.11.2011 09:40 4,0 C 10,6 C 4,5 C 5,4 C 5,4 C 1,4 C 92 % 92 % 37 % 1021,9 hPa 0,0 l/m 0,0 km/h (0 Bft) W 270 0 min 0,0 UV-I 2,8 C 5,4 C 0,0 km/h (0 Bft)
21.11.2011 09:45 4,0 C 10,5 C 4,4 C 5,5 C 5,5 C 1,5 C 91 % 92 % 39 % 1021,9 hPa 0,0 l/m 0,0 km/h (0 Bft) W 270 0 min 0,0 UV-I 2,7 C 5,5 C 0,0 km/h (0 Bft)
21.11.2011 09:50 4,1 C 10,5 C 4,5 C 5,5 C 5,5 C 1,4 C 91 % 92 % 37 % 1021,9 hPa 0,0 l/m 0,0 km/h (0 Bft) W 270 0 min 0,0 UV-I 2,8 C 5,5 C 0,0 km/h (0 Bft)
21.11.2011 09:55 4,3 C 10,5 C 4,7 C 5,7 C 5,7 C 1,4 C 91 % 92 % 37 % 1021,9 hPa 0,0 l/m 0,0 km/h (0 Bft) W 270 0 min 0,0 UV-I 3,0 C 5,7 C 0,0 km/h (0 Bft)
21.11.2011 10:00 4,3 C 10,5 C 4,7 C 5,8 C 5,8 C 1,5 C 91 % 91 % 39 % 1021,6 hPa 0,0 l/m 0,0 km/h (0 Bft) W-NW 292 0 min 0,0 UV-I 3,0 C 5,8 C 0,0 km/h (0 Bft)
21.11.2011 10:04 4,4 C 10,4 C 4,9 C 6,1 C 6,1 C 1,7 C 91 % 91 % 45 % 1021,6 hPa 0,0 l/m 0,0 km/h (0 Bft) N-NW 337 0 min 0,0 UV-I 3,1 C 6,1 C 0,0 km/h (0 Bft)
21.11.2011 10:09 4,5 C 10,4 C 4,8 C 6,2 C 6,2 C 1,7 C 90 % 91 % 45 % 1021,6 hPa 0,0 l/m 0,0 km/h (0 Bft) W-NW 292 0 min 0,0 UV-I 3,0 C 6,2 C 0,0 km/h (0 Bft)
21.11.2011 10:14 4,7 C 10,4 C 5,0 C 6,5 C 6,5 C 1,8 C 91 % 91 % 47 % 1021,6 hPa 0,0 l/m 0,0 km/h (0 Bft) W-NW 292 0 min 0,0 UV-I 3,4 C 6,5 C 0,0 km/h (0 Bft)
21.11.2011 10:18 4,7 C 10,4 C 5,0 C 6,5 C 6,5 C 1,8 C 91 % 91 % 47 % 1021,6 hPa 0,0 l/m 0,0 km/h (0 Bft) W-NW 292 0 min 0,0 UV-I 3,4 C 6,5 C 0,0 km/h (0 Bft)
21.11.2011 10:25 5,1 C 10,4 C 5,4 C 6,9 C 6,9 C 1,8 C 90 % 91 % 47 % 1020,9 hPa 0,0 l/m 0,0 km/h (0 Bft) W-NW 292 0 min 0,0 UV-I 3,6 C 6,9 C 0,0 km/h (0 Bft)
21.11.2011 10:30 5,2 C 10,4 C 5,5 C 7,1 C 7,1 C 1,9 C 90 % 91 % 50 % 1020,9 hPa 0,0 l/m 0,0 km/h (0 Bft) W 270 0 min 0,0 UV-I 3,7 C 7,1 C 0,0 km/h (0 Bft)
21.11.2011 10:35 5,5 C 10,4 C 5,7 C 7,2 C 7,2 C 1,7 C 90 % 91 % 45 % 1020,9 hPa 0,0 l/m 0,0 km/h (0 Bft) W 270 0 min 0,0 UV-I 4,0 C 7,2 C 0,0 km/h (0 Bft)
21.11.2011 10:40 5,5 C 10,4 C 5,7 C 7,4 C 7,4 C 1,9 C 89 % 91 % 50 % 1021,8 hPa 0,0 l/m 0,0 km/h (0 Bft) W 270 0 min 0,0 UV-I 3,8 C 7,4 C 0,0 km/h (0 Bft)
21.11.2011 10:45 5,6 C 10,4 C 5,8 C 7,5 C 7,5 C 1,9 C 89 % 90 % 50 % 1021,8 hPa 0,0 l/m 0,0 km/h (0 Bft) W 270 0 min 0,0 UV-I 3,9 C 7,5 C 0,0 km/h (0 Bft)
21.11.2011 10:50 5,7 C 10,4 C 5,9 C 7,5 C 7,5 C 1,8 C 89 % 90 % 47 % 1021,8 hPa 0,0 l/m 0,0 km/h (0 Bft) W 270 0 min 0,0 UV-I 4,0 C 7,5 C 0,0 km/h (0 Bft)
21.11.2011 10:55 5,8 C 10,4 C 5,9 C 7,6 C 7,6 C 1,8 C 88 % 90 % 47 % 1021,8 hPa 0,0 l/m 0,0 km/h (0 Bft) W 270 0 min 0,0 UV-I 4,0 C 7,6 C 0,0 km/h (0 Bft)
21.11.2011 11:00 6,0 C 10,4 C 6,0 C 7,6 C 7,6 C 1,6 C 88 % 89 % 42 % 1021,4 hPa 0,0 l/m 0,0 km/h (0 Bft) W 270 0 min 0,0 UV-I 4,2 C 7,6 C 0,0 km/h (0 Bft)
21.11.2011 11:04 6,1 C 10,3 C 6,1 C 7,8 C 7,8 C 1,7 C 88 % 90 % 45 % 1021,4 hPa 0,0 l/m 0,0 km/h (0 Bft) W 270 0 min 0,0 UV-I 4,3 C 7,8 C 0,0 km/h (0 Bft)
21.11.2011 11:09 6,3 C 10,3 C 6,3 C 7,9 C 7,9 C 1,6 C 88 % 90 % 42 % 1021,4 hPa 0,0 l/m 0,0 km/h (0 Bft) W 270 0 min 0,0 UV-I 4,5 C 7,9 C 0,0 km/h (0 Bft)
21.11.2011 11:14 6,3 C 10,3 C 6,4 C 7,9 C 7,9 C 1,6 C 87 % 90 % 42 % 1021,4 hPa 0,0 l/m 0,0 km/h (0 Bft) NW 315 0 min 0,0 UV-I 4,3 C 7,9 C 0,0 km/h (0 Bft)
21.11.2011 11:19 6,3 C 10,3 C 6,4 C 7,9 C 7,9 C 1,6 C 87 % 90 % 42 % 1021,4 hPa 0,0 l/m 0,0 km/h (0 Bft) W-NW 292 0 min 0,0 UV-I 4,3 C 7,9 C 0,0 km/h (0 Bft)
21.11.2011 11:25 6,4 C 10,3 C 6,4 C 8,0 C 8,0 C 1,6 C 87 % 89 % 42 % 1021,4 hPa 0,0 l/m 0,0 km/h (0 Bft) NW 315 0 min 0,0 UV-I 4,4 C 8,0 C 0,0 km/h (0 Bft)
21.11.2011 11:30 6,5 C 10,3 C 6,5 C 8,1 C 8,1 C 1,6 C 87 % 89 % 42 % 1021,4 hPa 0,0 l/m 0,0 km/h (0 Bft) NW 315 0 min 0,0 UV-I 4,5 C 8,1 C 0,0 km/h (0 Bft)
21.11.2011 11:35 6,7 C 10,3 C 6,7 C 8,2 C 8,2 C 1,5 C 87 % 89 % 39 % 1021,4 hPa 0,0 l/m 0,0 km/h (0 Bft) W 270 0 min 0,0 UV-I 4,7 C 8,2 C 0,0 km/h (0 Bft)
21.11.2011 11:40 6,8 C 10,3 C 6,7 C 8,2 C 8,2 C 1,4 C 87 % 89 % 37 % 1021,3 hPa 0,0 l/m 0,0 km/h (0 Bft) N 360 0 min 0,0 UV-I 4,8 C 8,2 C 0,0 km/h (0 Bft)
21.11.2011 11:45 6,8 C 10,3 C 6,6 C 8,3 C 8,3 C 1,5 C 86 % 89 % 39 % 1021,3 hPa 0,0 l/m 0,0 km/h (0 Bft) N 360 0 min 0,0 UV-I 4,6 C 8,3 C 0,0 km/h (0 Bft)
21.11.2011 11:50 6,9 C 10,3 C 6,8 C 8,4 C 8,4 C 1,5 C 86 % 89 % 39 % 1021,3 hPa 0,0 l/m 0,0 km/h (0 Bft) N 360 0 min 0,0 UV-I 4,7 C 8,4 C 0,0 km/h (0 Bft)
21.11.2011 11:55 7,1 C 10,3 C 6,9 C 8,7 C 8,7 C 1,6 C 85 % 88 % 42 % 1021,3 hPa 0,0 l/m 0,0 km/h (0 Bft) N 360 0 min 0,0 UV-I 4,8 C 8,7 C 0,0 km/h (0 Bft)
21.11.2011 12:00 7,2 C 10,3 C 7,1 C 8,9 C 8,9 C 1,7 C 85 % 88 % 45 % 1021,3 hPa 0,0 l/m 0,0 km/h (0 Bft) N 360 0 min 0,0 UV-I 4,9 C 8,9 C 0,0 km/h (0 Bft)
21.11.2011 12:04 7,4 C 10,3 C 7,1 C 9,0 C 9,0 C 1,6 C 84 % 88 % 42 % 1021,3 hPa 0,0 l/m 0,0 km/h (0 Bft) N 360 0 min 0,0 UV-I 4,9 C 9,0 C 0,0 km/h (0 Bft)
21.11.2011 12:09 7,5 C 10,3 C 7,2 C 9,1 C 9,1 C 1,6 C 84 % 88 % 42 % 1021,3 hPa 0,0 l/m 0,0 km/h (0 Bft) N 360 0 min 0,0 UV-I 5,0 C 9,1 C 0,0 km/h (0 Bft)
21.11.2011 12:14 7,7 C 10,3 C 7,3 C 9,3 C 9,3 C 1,6 C 83 % 87 % 42 % 1021,3 hPa 0,0 l/m 0,0 km/h (0 Bft) N 360 0 min 0,0 UV-I 5,0 C 9,3 C 0,0 km/h (0 Bft)
21.11.2011 12:18 7,7 C 10,3 C 7,3 C 9,3 C 9,3 C 1,6 C 83 % 87 % 42 % 1021,3 hPa 0,0 l/m 0,0 km/h (0 Bft) N 360 0 min 0,0 UV-I 5,0 C 9,3 C 0,0 km/h (0 Bft)
21.11.2011 12:25 7,9 C 10,3 C 7,4 C 9,5 C 9,5 C 1,6 C 82 % 86 % 42 % 1020,7 hPa 0,0 l/m 0,0 km/h (0 Bft) N 360 0 min 0,0 UV-I 5,0 C 9,5 C 0,0 km/h (0 Bft)
21.11.2011 12:30 7,9 C 10,3 C 7,5 C 9,6 C 9,6 C 1,7 C 82 % 86 % 45 % 1020,7 hPa 0,0 l/m 0,0 km/h (0 Bft) N 360 0 min 0,0 UV-I 5,0 C 9,6 C 0,0 km/h (0 Bft)
21.11.2011 12:35 8,1 C 10,3 C 7,6 C 9,8 C 9,8 C 1,7 C 81 % 86 % 45 % 1020,7 hPa 0,0 l/m 0,0 km/h (0 Bft) N-NO 22 0 min 0,0 UV-I 5,0 C 9,8 C 0,0 km/h (0 Bft)
21.11.2011 12:40 8,3 C 10,4 C 7,7 C 10,0 C 10,0 C 1,7 C 80 % 85 % 45 % 1020,7 hPa 0,0 l/m 0,0 km/h (0 Bft) O-NO 67 0 min 0,0 UV-I 5,1 C 10,0 C 0,0 km/h (0 Bft)
21.11.2011 12:45 8,4 C 10,4 C 7,8 C 10,0 C 10,0 C 1,6 C 80 % 85 % 42 % 1020,7 hPa 0,0 l/m 0,0 km/h (0 Bft) O 90 0 min 0,0 UV-I 5,2 C 10,0 C 0,0 km/h (0 Bft)
21.11.2011 12:50 8,4 C 10,4 C 7,9 C 10,1 C 10,1 C 1,7 C 79 % 84 % 45 % 1020,7 hPa 0,0 l/m 0,0 km/h (0 Bft) O 90 0 min 0,0 UV-I 5,0 C 10,1 C 0,0 km/h (0 Bft)
21.11.2011 12:55 8,6 C 10,4 C 8,1 C 10,2 C 10,2 C 1,6 C 79 % 83 % 42 % 1020,7 hPa 0,0 l/m 0,0 km/h (0 Bft) O 90 0 min 0,0 UV-I 5,2 C 10,2 C 0,0 km/h (0 Bft)
21.11.2011 13:00 8,7 C 10,4 C 8,3 C 10,3 C 10,3 C 1,6 C 78 % 84 % 42 % 1020,8 hPa 0,0 l/m 0,0 km/h (0 Bft) SO 135 0 min 0,0 UV-I 5,1 C 10,3 C 0,0 km/h (0 Bft)
21.11.2011 13:04 8,9 C 10,4 C 8,3 C 10,4 C 10,4 C 1,5 C 78 % 84 % 39 % 1020,8 hPa 0,0 l/m 0,0 km/h (0 Bft) SW 225 0 min 0,0 UV-I 5,3 C 10,4 C 0,0 km/h (0 Bft)
21.11.2011 13:09 8,9 C 10,4 C 8,4 C 10,4 C 10,4 C 1,5 C 78 % 83 % 39 % 1020,8 hPa 0,0 l/m 0,0 km/h (0 Bft) SW 225 0 min 0,0 UV-I 5,3 C 10,4 C 0,0 km/h (0 Bft)
21.11.2011 13:14 9,0 C 10,4 C 8,4 C 10,5 C 10,5 C 1,5 C 78 % 83 % 39 % 1020,8 hPa 0,0 l/m 0,0 km/h (0 Bft) W-SW 247 0 min 0,0 UV-I 5,4 C 10,5 C 0,0 km/h (0 Bft)
21.11.2011 13:18 9,0 C 10,4 C 8,4 C 10,5 C 10,5 C 1,5 C 78 % 83 % 39 % 1020,8 hPa 0,0 l/m 0,0 km/h (0 Bft) W-SW 247 0 min 0,0 UV-I 5,4 C 10,5 C 0,0 km/h (0 Bft)
21.11.2011 13:25 9,1 C 10,4 C 8,5 C 10,5 C 10,5 C 1,4 C 76 % 82 % 37 % 1021,1 hPa 0,0 l/m 0,0 km/h (0 Bft) W-SW 247 0 min 0,0 UV-I 5,1 C 10,5 C 0,0 km/h (0 Bft)
21.11.2011 13:30 9,1 C 10,4 C 8,5 C 10,6 C 10,6 C 1,5 C 76 % 82 % 39 % 1021,1 hPa 0,0 l/m 0,0 km/h (0 Bft) W-SW 247 0 min 0,0 UV-I 5,1 C 10,6 C 0,0 km/h (0 Bft)
21.11.2011 13:35 9,3 C 10,4 C 8,7 C 10,6 C 10,6 C 1,3 C 76 % 82 % 34 % 1021,1 hPa 0,0 l/m 0,0 km/h (0 Bft) W-SW 247 0 min 0,0 UV-I 5,3 C 10,6 C 0,0 km/h (0 Bft)
21.11.2011 13:40 9,2 C 10,4 C 8,6 C 10,6 C 10,6 C 1,4 C 76 % 82 % 37 % 1020,5 hPa 0,0 l/m 0,0 km/h (0 Bft) W-SW 247 0 min 0,0 UV-I 5,2 C 10,6 C 0,0 km/h (0 Bft)
21.11.2011 13:45 9,3 C 10,4 C 8,7 C 10,6 C 10,6 C 1,3 C 75 % 82 % 34 % 1020,5 hPa 0,0 l/m 0,0 km/h (0 Bft) W-SW 247 0 min 0,0 UV-I 5,1 C 10,6 C 0,0 km/h (0 Bft)
21.11.2011 13:50 9,4 C 10,4 C 8,6 C 10,7 C 10,7 C 1,3 C 75 % 82 % 34 % 1020,5 hPa 0,0 l/m 0,0 km/h (0 Bft) W-SW 247 0 min 0,0 UV-I 5,2 C 10,7 C 0,0 km/h (0 Bft)
21.11.2011 13:55 9,5 C 10,4 C 8,6 C 10,8 C 10,8 C 1,3 C 75 % 82 % 34 % 1020,5 hPa 0,0 l/m 0,0 km/h (0 Bft) W-SW 247 0 min 0,0 UV-I 5,3 C 10,8 C 0,0 km/h (0 Bft)
21.11.2011 14:00 9,5 C 10,5 C 8,6 C 10,8 C 10,8 C 1,3 C 75 % 81 % 34 % 1020,6 hPa 0,0 l/m 0,0 km/h (0 Bft) W-SW 247 0 min 0,0 UV-I 5,3 C 10,8 C 0,0 km/h (0 Bft)
21.11.2011 14:04 9,7 C 10,5 C 8,7 C 10,9 C 10,9 C 1,2 C 75 % 82 % 32 % 1020,6 hPa 0,0 l/m 0,0 km/h (0 Bft) W-SW 247 0 min 0,0 UV-I 5,5 C 10,9 C 0,0 km/h (0 Bft)
21.11.2011 14:09 9,7 C 10,5 C 8,9 C 11,0 C 11,0 C 1,3 C 75 % 81 % 34 % 1020,6 hPa 0,0 l/m 0,0 km/h (0 Bft) W-SW 247 0 min 0,0 UV-I 5,5 C 11,0 C 0,0 km/h (0 Bft)
21.11.2011 14:14 9,9 C 10,5 C 8,9 C 11,0 C 11,0 C 1,1 C 75 % 81 % 29 % 1020,6 hPa 0,0 l/m 0,0 km/h (0 Bft) SW 225 0 min 0,0 UV-I 5,7 C 11,0 C 0,0 km/h (0 Bft)
21.11.2011 14:18 9,9 C 10,5 C 8,9 C 11,0 C 11,0 C 1,1 C 75 % 81 % 29 % 1020,6 hPa 0,0 l/m 0,0 km/h (0 Bft) SW 225 0 min 0,0 UV-I 5,7 C 11,0 C 0,0 km/h (0 Bft)
21.11.2011 14:25 9,8 C 10,5 C 9,1 C 10,9 C 10,9 C 1,1 C 74 % 80 % 29 % 1019,8 hPa 0,0 l/m 0,0 km/h (0 Bft) O-SO 112 0 min 0,0 UV-I 5,4 C 10,9 C 0,0 km/h (0 Bft)
21.11.2011 14:30 9,8 C 10,5 C 9,1 C 10,9 C 10,9 C 1,1 C 73 % 80 % 29 % 1019,8 hPa 0,0 l/m 0,0 km/h (0 Bft) O-SO 112 0 min 0,0 UV-I 5,2 C 10,9 C 0,0 km/h (0 Bft)
21.11.2011 14:35 9,8 C 10,5 C 9,1 C 10,8 C 10,8 C 1,0 C 74 % 80 % 26 % 1019,8 hPa 0,0 l/m 0,0 km/h (0 Bft) O-SO 112 0 min 0,0 UV-I 5,4 C 10,8 C 0,0 km/h (0 Bft)
21.11.2011 14:40 9,8 C 10,5 C 9,2 C 10,8 C 10,8 C 1,0 C 74 % 79 % 26 % 1020,1 hPa 0,0 l/m 0,0 km/h (0 Bft) O-SO 112 0 min 0,0 UV-I 5,4 C 10,8 C 0,0 km/h (0 Bft)
21.11.2011 14:45 9,9 C 10,5 C 9,1 C 10,8 C 10,8 C 0,9 C 74 % 80 % 24 % 1020,1 hPa 0,0 l/m 0,0 km/h (0 Bft) O-SO 112 0 min 0,0 UV-I 5,5 C 10,8 C 0,0 km/h (0 Bft)
21.11.2011 14:50 9,9 C 10,5 C 9,0 C 10,7 C 10,7 C 0,8 C 75 % 81 % 21 % 1020,1 hPa 0,0 l/m 0,0 km/h (0 Bft) O-SO 112 0 min 0,0 UV-I 5,7 C 10,7 C 0,0 km/h (0 Bft)
21.11.2011 14:55 9,9 C 10,6 C 9,1 C 10,6 C 10,6 C 0,7 C 75 % 81 % 18 % 1020,1 hPa 0,0 l/m 0,0 km/h (0 Bft) O-SO 112 0 min 0,0 UV-I 5,7 C 10,6 C 0,0 km/h (0 Bft)
21.11.2011 15:00 9,8 C 10,6 C 8,9 C 10,5 C 10,5 C 0,7 C 76 % 81 % 18 % 1019,9 hPa 0,0 l/m 0,0 km/h (0 Bft) O-SO 112 0 min 0,0 UV-I 5,8 C 10,5 C 0,0 km/h (0 Bft)
21.11.2011 15:04 9,9 C 10,6 C 8,9 C 10,4 C 10,4 C 0,5 C 76 % 81 % 13 % 1019,9 hPa 0,0 l/m 0,0 km/h (0 Bft) O-SO 112 0 min 0,0 UV-I 5,9 C 10,4 C 0,0 km/h (0 Bft)
21.11.2011 15:09 9,8 C 10,6 C 8,8 C 10,3 C 10,3 C 0,5 C 76 % 81 % 13 % 1019,9 hPa 0,0 l/m 0,0 km/h (0 Bft) O-SO 112 0 min 0,0 UV-I 5,8 C 10,3 C 0,0 km/h (0 Bft)
21.11.2011 15:14 9,6 C 10,6 C 8,8 C 10,2 C 10,2 C 0,6 C 76 % 81 % 16 % 1019,9 hPa 0,0 l/m 0,0 km/h (0 Bft) O-SO 112 0 min 0,0 UV-I 5,6 C 10,2 C 0,0 km/h (0 Bft)
21.11.2011 15:18 9,6 C 10,6 C 8,8 C 10,2 C 10,2 C 0,6 C 76 % 81 % 16 % 1019,9 hPa 0,0 l/m 0,0 km/h (0 Bft) O-SO 112 0 min 0,0 UV-I 5,6 C 10,2 C 0,0 km/h (0 Bft)
21.11.2011 15:29 9,5 C 10,6 C 8,8 C 9,6 C 9,6 C 0,1 C 76 % 81 % 3 % 1019,9 hPa 0,0 l/m 0,0 km/h (0 Bft) O-SO 112 0 min 0,0 UV-I 5,5 C 9,6 C 0,0 km/h (0 Bft)
21.11.2011 15:30 9,5 C 10,6 C 8,8 C 9,6 C 9,6 C 0,1 C 76 % 81 % 3 % 1019,9 hPa 0,0 l/m 0,0 km/h (0 Bft) O-SO 112 0 min 0,0 UV-I 5,5 C 9,6 C 0,0 km/h (0 Bft)
21.11.2011 15:31 9,5 C 10,6 C 8,8 C 9,6 C 9,6 C 0,1 C 76 % 81 % 3 % 1019,9 hPa 0,0 l/m 0,0 km/h (0 Bft) O-SO 112 0 min 0,0 UV-I 5,5 C 9,6 C 0,0 km/h (0 Bft)
21.11.2011 15:32 9,5 C 10,6 C 8,8 C 9,6 C 9,6 C 0,1 C 76 % 81 % 3 % 1019,9 hPa 0,0 l/m 0,0 km/h (0 Bft) O-SO 112 0 min 0,0 UV-I 5,5 C 9,6 C 0,0 km/h (0 Bft)
21.11.2011 15:33 9,5 C 10,6 C 8,8 C 9,6 C 9,6 C 0,1 C 76 % 81 % 3 % 1019,9 hPa 0,0 l/m 0,0 km/h (0 Bft) O-SO 112 0 min 0,0 UV-I 5,5 C 9,6 C 0,0 km/h (0 Bft)
21.11.2011 15:34 9,2 C 10,6 C 8,7 C 9,4 C 9,4 C 0,2 C 77 % 81 % 5 % 1019,9 hPa 0,0 l/m 0,0 km/h (0 Bft) O-SO 112 0 min 0,0 UV-I 5,4 C 9,4 C 0,0 km/h (0 Bft)
21.11.2011 15:40 9,2 C 10,6 C 8,7 C 9,2 C 9,2 C 0,0 C 77 % 81 % 0 % 1020,1 hPa 0,0 l/m 0,0 km/h (0 Bft) O-SO 112 0 min 0,0 UV-I 5,4 C 9,2 C 0,0 km/h (0 Bft)
21.11.2011 15:45 9,1 C 10,6 C 8,5 C 9,1 C 9,0 C 0,0 C 78 % 82 % 0 % 1020,1 hPa 0,0 l/m 0,0 km/h (0 Bft) O-SO 112 0 min 0,0 UV-I 5,5 C 9,0 C 0,0 km/h (0 Bft)
21.11.2011 15:50 9,0 C 10,6 C 8,5 C 9,0 C 8,9 C 0,0 C 78 % 82 % 0 % 1020,1 hPa 0,0 l/m 0,0 km/h (0 Bft) O-SO 112 0 min 0,0 UV-I 5,4 C 8,9 C 0,0 km/h (0 Bft)
21.11.2011 15:55 8,9 C 10,6 C 8,3 C 8,8 C 8,7 C 0,0 C 78 % 82 % 0 % 1020,1 hPa 0,0 l/m 0,0 km/h (0 Bft) O-SO 112 0 min 0,0 UV-I 5,3 C 8,7 C 0,0 km/h (0 Bft)
21.11.2011 16:00 8,7 C 10,6 C 8,3 C 8,7 C 8,6 C 0,0 C 78 % 82 % 0 % 1020,4 hPa 0,0 l/m 0,0 km/h (0 Bft) O-SO 112 0 min 0,0 UV-I 5,1 C 8,6 C 0,0 km/h (0 Bft)
21.11.2011 16:11 8,5 C 10,7 C 8,0 C 8,4 C 8,2 C 0,0 C 79 % 83 % 0 % 1020,4 hPa 0,0 l/m 0,0 km/h (0 Bft) - - 0 0 min 0,0 UV-I 5,1 C 8,2 C 0,0 km/h (0 Bft)
21.11.2011 16:20 8,3 C 10,8 C 7,6 C 8,1 C 7,7 C 0,0 C 79 % 83 % 0 % 1019,8 hPa 0,0 l/m 0,0 km/h (0 Bft) O-SO 112 0 min 0,0 UV-I 4,9 C 7,7 C 0,0 km/h (0 Bft)
21.11.2011 16:25 8,0 C 10,8 C 7,4 C 7,8 C 7,4 C 0,0 C 79 % 84 % 0 % 1019,8 hPa 0,0 l/m 0,0 km/h (0 Bft) O-SO 112 0 min 0,0 UV-I 4,6 C 7,4 C 0,0 km/h (0 Bft)
21.11.2011 16:30 7,9 C 10,8 C 7,3 C 7,7 C 7,4 C 0,0 C 80 % 84 % 0 % 1019,8 hPa 0,0 l/m 0,0 km/h (0 Bft) O-SO 112 0 min 0,0 UV-I 4,7 C 7,4 C 0,0 km/h (0 Bft)
21.11.2011 16:35 7,6 C 10,8 C 7,1 C 7,4 C 7,1 C 0,0 C 80 % 84 % 0 % 1019,8 hPa 0,0 l/m 0,0 km/h (0 Bft) O-SO 112 0 min 0,0 UV-I 4,4 C 7,1 C 0,0 km/h (0 Bft)
21.11.2011 16:40 7,5 C 10,9 C 6,9 C 7,3 C 6,9 C 0,0 C 81 % 84 % 0 % 1019,8 hPa 0,0 l/m 0,0 km/h (0 Bft) O-SO 112 0 min 0,0 UV-I 4,5 C 6,9 C 0,0 km/h (0 Bft)
21.11.2011 16:45 7,3 C 10,9 C 6,8 C 7,1 C 6,8 C 0,0 C 81 % 85 % 0 % 1019,8 hPa 0,0 l/m 0,0 km/h (0 Bft) O-SO 112 0 min 0,0 UV-I 4,3 C 6,8 C 0,0 km/h (0 Bft)
21.11.2011 16:50 7,2 C 10,9 C 6,7 C 7,0 C 6,7 C 0,0 C 81 % 85 % 0 % 1019,8 hPa 0,0 l/m 0,0 km/h (0 Bft) O-SO 112 0 min 0,0 UV-I 4,2 C 6,7 C 0,0 km/h (0 Bft)
21.11.2011 16:55 7,1 C 10,9 C 6,5 C 6,9 C 6,6 C 0,0 C 82 % 85 % 0 % 1019,8 hPa 0,0 l/m 0,0 km/h (0 Bft) O-SO 112 0 min 0,0 UV-I 4,2 C 6,6 C 0,0 km/h (0 Bft)
21.11.2011 17:00 7,0 C 10,9 C 6,5 C 6,8 C 6,4 C 0,0 C 82 % 85 % 0 % 1019,8 hPa 0,0 l/m 0,0 km/h (0 Bft) O-SO 112 0 min 0,0 UV-I 4,1 C 6,4 C 0,0 km/h (0 Bft)
21.11.2011 17:11 6,8 C 10,9 C 6,3 C 6,6 C 6,1 C 0,0 C 82 % 86 % 0 % 1019,8 hPa 0,0 l/m 0,0 km/h (0 Bft) - - 0 0 min 0,0 UV-I 3,9 C 6,1 C 0,0 km/h (0 Bft)
21.11.2011 17:20 6,4 C 11,0 C 6,0 C 6,2 C 5,9 C 0,0 C 83 % 86 % 0 % 1019,8 hPa 0,0 l/m 0,0 km/h (0 Bft) O-SO 112 0 min 0,0 UV-I 3,7 C 5,9 C 0,0 km/h (0 Bft)
21.11.2011 17:25 6,3 C 11,0 C 5,9 C 6,2 C 5,9 C 0,0 C 83 % 87 % 0 % 1019,8 hPa 0,0 l/m 0,0 km/h (0 Bft) O-SO 112 0 min 0,0 UV-I 3,6 C 5,9 C 0,0 km/h (0 Bft)
21.11.2011 17:30 6,3 C 11,0 C 6,0 C 6,2 C 6,0 C 0,0 C 84 % 87 % 0 % 1019,8 hPa 0,0 l/m 0,0 km/h (0 Bft) O-SO 112 0 min 0,0 UV-I 3,8 C 6,0 C 0,0 km/h (0 Bft)
21.11.2011 17:35 6,3 C 11,0 C 6,0 C 6,2 C 6,1 C 0,0 C 85 % 87 % 0 % 1019,8 hPa 0,0 l/m 0,0 km/h (0 Bft) O-SO 112 0 min 0,0 UV-I 4,0 C 6,1 C 0,0 km/h (0 Bft)
21.11.2011 17:40 6,3 C 11,0 C 6,0 C 6,2 C 6,1 C 0,0 C 85 % 87 % 0 % 1019,8 hPa 0,0 l/m 0,0 km/h (0 Bft) O-SO 112 0 min 0,0 UV-I 4,0 C 6,1 C 0,0 km/h (0 Bft)
21.11.2011 17:45 6,3 C 11,0 C 5,9 C 6,2 C 6,1 C 0,0 C 85 % 87 % 0 % 1019,8 hPa 0,0 l/m 0,0 km/h (0 Bft) O-SO 112 0 min 0,0 UV-I 4,0 C 6,1 C 0,0 km/h (0 Bft)
21.11.2011 17:50 6,2 C 11,0 C 5,9 C 6,1 C 6,0 C 0,0 C 85 % 87 % 0 % 1019,8 hPa 0,0 l/m 0,0 km/h (0 Bft) O-SO 112 0 min 0,0 UV-I 3,9 C 6,0 C 0,0 km/h (0 Bft)
21.11.2011 17:55 6,0 C 11,1 C 5,7 C 5,9 C 5,8 C 0,0 C 84 % 87 % 0 % 1019,8 hPa 0,0 l/m 0,0 km/h (0 Bft) O-SO 112 0 min 0,0 UV-I 3,5 C 5,8 C 0,0 km/h (0 Bft)
21.11.2011 18:00 6,0 C 11,0 C 5,6 C 5,9 C 5,6 C 0,0 C 84 % 88 % 0 % 1020,1 hPa 0,0 l/m 0,0 km/h (0 Bft) O-SO 112 0 min 0,0 UV-I 3,5 C 5,6 C 0,0 km/h (0 Bft)
21.11.2011 18:12 5,7 C 11,0 C 5,5 C 5,6 C 5,5 C 0,0 C 85 % 88 % 0 % 1020,1 hPa 0,0 l/m 0,0 km/h (0 Bft) - - 0 0 min 0,0 UV-I 3,4 C 5,5 C 0,0 km/h (0 Bft)
21.11.2011 18:20 5,6 C 11,0 C 5,2 C 5,5 C 5,2 C 0,0 C 85 % 88 % 0 % 1020,2 hPa 0,0 l/m 0,0 km/h (0 Bft) O-SO 112 0 min 0,0 UV-I 3,3 C 5,2 C 0,0 km/h (0 Bft)
21.11.2011 18:25 5,4 C 11,0 C 5,0 C 5,3 C 5,0 C 0,0 C 85 % 88 % 0 % 1020,2 hPa 0,0 l/m 0,0 km/h (0 Bft) O-SO 112 0 min 0,0 UV-I 3,1 C 5,0 C 0,0 km/h (0 Bft)
21.11.2011 18:30 5,3 C 11,1 C 5,1 C 5,2 C 5,0 C 0,0 C 85 % 88 % 0 % 1020,2 hPa 0,0 l/m 0,0 km/h (0 Bft) O-SO 112 0 min 0,0 UV-I 3,0 C 5,0 C 0,0 km/h (0 Bft)
21.11.2011 18:35 5,2 C 11,1 C 4,9 C 5,1 C 4,8 C 0,0 C 85 % 88 % 0 % 1020,2 hPa 0,0 l/m 0,0 km/h (0 Bft) O-SO 112 0 min 0,0 UV-I 2,9 C 4,8 C 0,0 km/h (0 Bft)
21.11.2011 18:40 5,0 C 11,3 C 4,8 C 4,8 C 4,4 C 0,0 C 86 % 88 % 0 % 1020,3 hPa 0,0 l/m 0,0 km/h (0 Bft) O-SO 112 0 min 0,0 UV-I 2,9 C 4,4 C 0,0 km/h (0 Bft)
21.11.2011 18:45 4,8 C 11,3 C 4,6 C 4,5 C 4,0 C 0,0 C 86 % 88 % 0 % 1020,3 hPa 0,0 l/m 0,0 km/h (0 Bft) O-SO 112 0 min 0,0 UV-I 2,7 C 4,0 C 0,0 km/h (0 Bft)
21.11.2011 18:50 4,7 C 11,3 C 4,4 C 4,4 C 3,7 C 0,0 C 86 % 88 % 0 % 1020,3 hPa 0,0 l/m 0,0 km/h (0 Bft) SO 135 0 min 0,0 UV-I 2,6 C 3,7 C 0,0 km/h (0 Bft)
21.11.2011 18:55 4,5 C 11,3 C 4,3 C 4,2 C 3,5 C 0,0 C 86 % 88 % 0 % 1020,3 hPa 0,0 l/m 0,0 km/h (0 Bft) SO 135 0 min 0,0 UV-I 2,4 C 3,5 C 0,0 km/h (0 Bft)
21.11.2011 19:00 4,4 C 11,3 C 4,3 C 4,0 C 3,2 C 0,0 C 86 % 88 % 0 % 1020,2 hPa 0,0 l/m 0,0 km/h (0 Bft) SO 135 0 min 0,0 UV-I 2,3 C 3,2 C 0,0 km/h (0 Bft)
21.11.2011 19:11 4,0 C 11,3 C 4,0 C 3,6 C 2,9 C 0,0 C 85 % 88 % 0 % 1020,2 hPa 0,0 l/m 0,0 km/h (0 Bft) - - 0 0 min 0,0 UV-I 1,7 C 2,9 C 0,0 km/h (0 Bft)
21.11.2011 19:20 3,7 C 11,3 C 3,9 C 3,4 C 2,7 C 0,0 C 86 % 89 % 0 % 1020,1 hPa 0,0 l/m 0,0 km/h (0 Bft) SO 135 0 min 0,0 UV-I 1,6 C 2,7 C 0,0 km/h (0 Bft)
21.11.2011 19:25 3,6 C 11,3 C 3,6 C 3,3 C 2,7 C 0,0 C 87 % 89 % 0 % 1020,1 hPa 0,0 l/m 0,0 km/h (0 Bft) SO 135 0 min 0,0 UV-I 1,6 C 2,7 C 0,0 km/h (0 Bft)
21.11.2011 19:30 3,6 C 11,3 C 3,6 C 3,3 C 2,8 C 0,0 C 87 % 89 % 0 % 1020,1 hPa 0,0 l/m 0,0 km/h (0 Bft) O-SO 112 0 min 0,0 UV-I 1,6 C 2,8 C 0,0 km/h (0 Bft)
21.11.2011 19:35 3,5 C 11,3 C 3,7 C 3,3 C 2,9 C 0,0 C 87 % 90 % 0 % 1020,1 hPa 0,0 l/m 0,0 km/h (0 Bft) O-SO 112 0 min 0,0 UV-I 1,5 C 2,9 C 0,0 km/h (0 Bft)
21.11.2011 19:40 3,5 C 11,3 C 3,7 C 3,3 C 2,9 C 0,0 C 88 % 90 % 0 % 1020,1 hPa 0,0 l/m 0,0 km/h (0 Bft) O-SO 112 0 min 0,0 UV-I 1,7 C 2,9 C 0,0 km/h (0 Bft)
21.11.2011 19:45 3,4 C 11,3 C 3,5 C 3,2 C 2,7 C 0,0 C 88 % 90 % 0 % 1020,1 hPa 0,0 l/m 0,0 km/h (0 Bft) O-SO 112 0 min 0,0 UV-I 1,6 C 2,7 C 0,0 km/h (0 Bft)
21.11.2011 19:50 3,3 C 11,3 C 3,5 C 3,0 C 2,5 C 0,0 C 88 % 90 % 0 % 1020,1 hPa 0,0 l/m 0,0 km/h (0 Bft) O-SO 112 0 min 0,0 UV-I 1,5 C 2,5 C 0,0 km/h (0 Bft)
21.11.2011 19:55 3,2 C 11,3 C 3,3 C 3,0 C 2,5 C 0,0 C 88 % 89 % 0 % 1020,1 hPa 0,0 l/m 0,0 km/h (0 Bft) O-SO 112 0 min 0,0 UV-I 1,4 C 2,5 C 0,0 km/h (0 Bft)
21.11.2011 20:00 3,1 C 11,3 C 3,2 C 2,9 C 2,4 C 0,0 C 88 % 89 % 0 % 1020,1 hPa 0,0 l/m 0,0 km/h (0 Bft) O-SO 112 0 min 0,0 UV-I 1,3 C 2,4 C 0,0 km/h (0 Bft)
21.11.2011 20:12 2,8 C 11,3 C 3,1 C 2,5 C 1,9 C 0,0 C 88 % 89 % 0 % 1020,1 hPa 0,0 l/m 0,0 km/h (0 Bft) - - 0 0 min 0,0 UV-I 1,0 C 1,9 C 0,0 km/h (0 Bft)
21.11.2011 20:20 2,7 C 11,3 C 2,9 C 2,4 C 1,8 C 0,0 C 88 % 89 % 0 % 1020,4 hPa 0,0 l/m 0,0 km/h (0 Bft) SO 135 0 min 0,0 UV-I 0,9 C 1,8 C 0,0 km/h (0 Bft)
21.11.2011 20:25 2,4 C 11,3 C 2,7 C 2,2 C 1,7 C 0,0 C 89 % 89 % 0 % 1020,4 hPa 0,0 l/m 0,0 km/h (0 Bft) SO 135 0 min 0,0 UV-I 0,8 C 1,7 C 0,0 km/h (0 Bft)
21.11.2011 20:30 2,4 C 11,3 C 2,8 C 2,1 C 1,6 C 0,0 C 89 % 90 % 0 % 1020,4 hPa 0,0 l/m 0,0 km/h (0 Bft) SO 135 0 min 0,0 UV-I 0,8 C 1,6 C 0,0 km/h (0 Bft)
21.11.2011 20:35 2,3 C 11,2 C 2,6 C 2,0 C 1,3 C 0,0 C 89 % 90 % 0 % 1020,4 hPa 0,0 l/m 0,0 km/h (0 Bft) SO 135 0 min 0,0 UV-I 0,7 C 1,3 C 0,0 km/h (0 Bft)
21.11.2011 20:40 2,3 C 11,2 C 2,5 C 2,0 C 1,3 C 0,0 C 89 % 90 % 0 % 1020,9 hPa 0,0 l/m 0,0 km/h (0 Bft) SO 135 0 min 0,0 UV-I 0,7 C 1,3 C 0,0 km/h (0 Bft)
21.11.2011 20:45 2,1 C 11,2 C 2,5 C 1,8 C 1,3 C 0,0 C 89 % 90 % 0 % 1020,9 hPa 0,0 l/m 0,0 km/h (0 Bft) SO 135 0 min 0,0 UV-I 0,5 C 1,3 C 0,0 km/h (0 Bft)
21.11.2011 20:50 2,1 C 11,2 C 2,4 C 1,9 C 1,4 C 0,0 C 89 % 90 % 0 % 1020,9 hPa 0,0 l/m 0,0 km/h (0 Bft) SO 135 0 min 0,0 UV-I 0,5 C 1,4 C 0,0 km/h (0 Bft)
21.11.2011 20:55 2,0 C 11,2 C 2,3 C 1,8 C 1,3 C 0,0 C 89 % 90 % 0 % 1020,9 hPa 0,0 l/m 0,0 km/h (0 Bft) SO 135 0 min 0,0 UV-I 0,4 C 1,3 C 0,0 km/h (0 Bft)
21.11.2011 21:00 2,0 C 11,2 C 2,3 C 1,8 C 1,3 C 0,0 C 89 % 90 % 0 % 1020,5 hPa 0,0 l/m 0,0 km/h (0 Bft) SO 135 0 min 0,0 UV-I 0,4 C 1,3 C 0,0 km/h (0 Bft)
21.11.2011 21:12 1,8 C 11,2 C 2,3 C 1,6 C 1,1 C 0,0 C 89 % 90 % 0 % 1020,5 hPa 0,0 l/m 0,0 km/h (0 Bft) - - 0 0 min 0,0 UV-I 0,2 C 1,1 C 0,0 km/h (0 Bft)
21.11.2011 21:20 1,6 C 11,2 C 2,0 C 1,3 C 0,7 C 0,0 C 89 % 90 % 0 % 1020,3 hPa 0,0 l/m 0,0 km/h (0 Bft) SO 135 0 min 0,0 UV-I -0,0 C 0,7 C 0,0 km/h (0 Bft)
21.11.2011 21:25 1,5 C 11,2 C 1,9 C 1,2 C 0,6 C 0,0 C 89 % 90 % 0 % 1020,3 hPa 0,0 l/m 0,0 km/h (0 Bft) SO 135 0 min 0,0 UV-I -0,1 C 0,6 C 0,0 km/h (0 Bft)
21.11.2011 21:30 1,5 C 11,2 C 1,9 C 1,2 C 0,5 C 0,0 C 89 % 90 % 0 % 1020,3 hPa 0,0 l/m 0,0 km/h (0 Bft) SO 135 0 min 0,0 UV-I -0,1 C 0,5 C 0,0 km/h (0 Bft)
21.11.2011 21:35 1,3 C 11,3 C 1,9 C 1,0 C 0,3 C 0,0 C 89 % 90 % 0 % 1020,3 hPa 0,0 l/m 0,0 km/h (0 Bft) SO 135 0 min 0,0 UV-I -0,3 C 0,3 C 0,0 km/h (0 Bft)
21.11.2011 21:40 1,2 C 11,3 C 1,9 C 0,9 C 0,2 C 0,0 C 89 % 90 % 0 % 1020,5 hPa 0,0 l/m 0,0 km/h (0 Bft) SO 135 0 min 0,0 UV-I -0,4 C 0,2 C 0,0 km/h (0 Bft)
21.11.2011 21:45 1,1 C 11,1 C 1,6 C 0,8 C 0,3 C 0,0 C 90 % 90 % 0 % 1020,5 hPa 0,0 l/m 0,0 km/h (0 Bft) SO 135 0 min 0,0 UV-I -0,4 C 0,3 C 0,0 km/h (0 Bft)
21.11.2011 21:50 1,1 C 11,1 C 1,6 C 0,8 C 0,3 C 0,0 C 90 % 90 % 0 % 1020,5 hPa 0,0 l/m 0,0 km/h (0 Bft) SO 135 0 min 0,0 UV-I -0,4 C 0,3 C 0,0 km/h (0 Bft)
21.11.2011 21:55 1,1 C 11,1 C 1,6 C 0,9 C 0,4 C 0,0 C 90 % 90 % 0 % 1020,5 hPa 0,0 l/m 0,0 km/h (0 Bft) SO 135 0 min 0,0 UV-I -0,4 C 0,4 C 0,0 km/h (0 Bft)
21.11.2011 22:00 1,1 C 11,1 C 1,5 C 0,9 C 0,5 C 0,0 C 90 % 90 % 0 % 1021,1 hPa 0,0 l/m 0,0 km/h (0 Bft) SO 135 0 min 0,0 UV-I -0,4 C 0,5 C 0,0 km/h (0 Bft)
21.11.2011 22:05 1,1 C 11,1 C 1,5 C 0,9 C 0,4 C 0,0 C 90 % 90 % 0 % 1021,1 hPa 0,0 l/m 0,0 km/h (0 Bft) SO 135 0 min 0,0 UV-I -0,4 C 0,4 C 0,0 km/h (0 Bft)
21.11.2011 22:10 1,0 C 11,1 C 1,5 C 0,8 C 0,4 C 0,0 C 90 % 91 % 0 % 1021,1 hPa 0,0 l/m 0,0 km/h (0 Bft) SO 135 0 min 0,0 UV-I -0,5 C 0,4 C 0,0 km/h (0 Bft)
21.11.2011 22:15 0,9 C 11,1 C 1,4 C 0,7 C 0,2 C 0,0 C 90 % 90 % 0 % 1021,1 hPa 0,0 l/m 0,0 km/h (0 Bft) SO 135 0 min 0,0 UV-I -0,6 C 0,2 C 0,0 km/h (0 Bft)
21.11.2011 22:20 0,8 C 11,1 C 1,3 C 0,5 C 0,0 C 0,0 C 90 % 90 % 0 % 1021,1 hPa 0,0 l/m 0,0 km/h (0 Bft) SO 135 0 min 0,0 UV-I -0,6 C 0,0 C 0,0 km/h (0 Bft)
21.11.2011 22:25 0,7 C 11,1 C 1,2 C 0,4 C -0,2 C 0,0 C 90 % 90 % 0 % 1021,1 hPa 0,0 l/m 0,0 km/h (0 Bft) SO 135 0 min 0,0 UV-I -0,7 C -0,2 C 0,0 km/h (0 Bft)
21.11.2011 22:30 0,7 C 11,1 C 1,2 C 0,3 C -0,4 C 0,0 C 90 % 90 % 0 % 1021,1 hPa 0,0 l/m 0,0 km/h (0 Bft) SO 135 0 min 0,0 UV-I -0,7 C -0,4 C 0,0 km/h (0 Bft)
21.11.2011 22:35 0,4 C 11,1 C 1,1 C 0,1 C -0,5 C 0,0 C 90 % 90 % 0 % 1021,1 hPa 0,0 l/m 0,0 km/h (0 Bft) SO 135 0 min 0,0 UV-I -1,0 C -0,5 C 0,0 km/h (0 Bft)
21.11.2011 22:40 0,5 C 11,1 C 1,1 C 0,2 C -0,5 C 0,0 C 90 % 90 % 0 % 1020,4 hPa 0,0 l/m 0,0 km/h (0 Bft) SO 135 0 min 0,0 UV-I -0,9 C -0,5 C 0,0 km/h (0 Bft)
21.11.2011 22:45 0,4 C 11,1 C 1,1 C 0,1 C -0,6 C 0,0 C 90 % 91 % 0 % 1020,4 hPa 0,0 l/m 0,0 km/h (0 Bft) SO 135 0 min 0,0 UV-I -1,0 C -0,6 C 0,0 km/h (0 Bft)
21.11.2011 22:50 0,3 C 11,0 C 1,1 C 0,0 C -0,6 C 0,0 C 90 % 91 % 0 % 1020,4 hPa 0,0 l/m 0,0 km/h (0 Bft) SO 135 0 min 0,0 UV-I -1,1 C -0,6 C 0,0 km/h (0 Bft)
21.11.2011 22:55 0,3 C 11,0 C 1,0 C 0,0 C -0,7 C 0,0 C 90 % 91 % 0 % 1020,4 hPa 0,0 l/m 0,0 km/h (0 Bft) SO 135 0 min 0,0 UV-I -1,1 C -0,7 C 0,0 km/h (0 Bft)
21.11.2011 23:00 0,2 C 11,0 C 0,9 C -0,1 C -0,7 C 0,0 C 90 % 91 % 0 % 1020,4 hPa 0,0 l/m 0,0 km/h (0 Bft) SO 135 0 min 0,0 UV-I -1,2 C -0,7 C 0,0 km/h (0 Bft)
21.11.2011 23:12 0,1 C 11,0 C 0,9 C -0,2 C -0,7 C 0,0 C 90 % 91 % 0 % 1020,4 hPa 0,0 l/m 0,0 km/h (0 Bft) - - 0 0 min 0,0 UV-I -1,3 C -0,7 C 0,0 km/h (0 Bft)
21.11.2011 23:20 0,1 C 11,0 C 0,8 C -0,1 C -0,5 C 0,0 C 91 % 91 % 0 % 1020,8 hPa 0,0 l/m 0,0 km/h (0 Bft) SO 135 0 min 0,0 UV-I -1,2 C -0,5 C 0,0 km/h (0 Bft)
21.11.2011 23:25 0,1 C 11,0 C 0,7 C -0,1 C -0,5 C 0,0 C 91 % 91 % 0 % 1020,8 hPa 0,0 l/m 0,0 km/h (0 Bft) SO 135 0 min 0,0 UV-I -1,2 C -0,5 C 0,0 km/h (0 Bft)
21.11.2011 23:30 0,1 C 11,0 C 0,7 C -0,1 C -0,6 C 0,0 C 91 % 91 % 0 % 1020,8 hPa 0,0 l/m 0,0 km/h (0 Bft) SO 135 0 min 0,0 UV-I -1,2 C -0,6 C 0,0 km/h (0 Bft)
21.11.2011 23:35 -0,1 C 11,1 C 0,6 C -0,3 C -0,8 C 0,0 C 91 % 91 % 0 % 1020,8 hPa 0,0 l/m 0,0 km/h (0 Bft) SO 135 0 min 0,0 UV-I -1,4 C -0,8 C 0,0 km/h (0 Bft)
21.11.2011 23:40 -0,1 C 11,1 C 0,7 C -0,4 C -0,9 C 0,0 C 91 % 91 % 0 % 1020,2 hPa 0,0 l/m 0,0 km/h (0 Bft) SO 135 0 min 0,0 UV-I -1,4 C -0,9 C 0,0 km/h (0 Bft)
21.11.2011 23:45 -0,3 C 11,0 C 0,6 C -0,6 C -1,1 C 0,0 C 91 % 91 % 0 % 1020,2 hPa 0,0 l/m 0,0 km/h (0 Bft) SO 135 0 min 0,0 UV-I -1,6 C -1,1 C 0,0 km/h (0 Bft)
21.11.2011 23:50 -0,3 C 11,0 C 0,6 C -0,6 C -1,2 C 0,0 C 91 % 91 % 0 % 1020,2 hPa 0,0 l/m 0,0 km/h (0 Bft) SO 135 0 min 0,0 UV-I -1,6 C -1,2 C 0,0 km/h (0 Bft)
21.11.2011 23:55 -0,3 C 11,0 C 0,5 C -0,6 C -1,1 C 0,0 C 91 % 91 % 0 % 1020,2 hPa 0,0 l/m 0,0 km/h (0 Bft) SO 135 0 min 0,0 UV-I -1,6 C -1,1 C 0,0 km/h (0 Bft)
_ Min-Zeit 23:45 11:04 23:55 23:45 23:50 00:00 14:30 14:40 00:00 14:25 - 00:00 - - - 00:00 23:45 23:50 00:00
Minimum _ -0,3 C 10,3 C 0,5 C -0,6 C -1,2 C 0,0 C 73 % 79 % 0 % 1019,8 hPa - 0,0 km/h (0 Bft) - - - 0,0 UV-I -1,6 C -1,2 C 0,0 km/h (0 Bft)
_ Max-Zeit 14:14 18:40 14:40 14:09 14:09 10:30 09:04 08:14 10:30 00:00 00:00 00:00 - - 00:00 00:00 15:04 14:09 00:00
Maximum _ 9,9 C 11,3 C 9,2 C 11,0 C 11,0 C 1,9 C 92 % 92 % 50 % 1023,7 hPa 0,0 l/m 0,0 km/h
O-NO (0 Bft)
- - 0 min 0,0 UV-I 5,9 C 11,0 C 0,0 km/h
O-NO (0 Bft)
Durchschnitt _ 4,5 C 10,8 C 4,6 C 4,8 C 4,7 C 0,5 C 87 % 89 % 11 % 1021,2 hPa #0,0 l/m 0,0 km/h (0 Bft) - - - #0 min. 0,0 UV-I 2,4 C 4,7 C 0,0 km/h (0 Bft)
2011 www.wetterstation-wechselburg.de